State University, Arkansas
Current Conditions -  °F | °C
As of 12:53 PM on Thursday 30 Oct 2014 (Local Time) from KJBR Reporting Station
Clear Clear  
Wind Chill: 64°   Ceiling: Unl
Heat Index: 64°   Visibility: 10mi
Dew Point: 38°   Wind: 6mph
Humidity: 38%   Direction: 180°S
Pressure: 30.12"   Gusts: NA
Location:  35.85°N, 90.68°W
Report Text: KJBR 301753Z AUTO 18005KT 10SM CLR 18/03 A3012 RMK AO2 SLP197 T01780033 10183 20044 58019
Loading
Personal Weather Stations






























Interactive Weather Map
Tropical Storm Tracking
New forecast layout! Learn more

10-Day Weather Forecast

Advertisements
Track Severe Weather on mobile